Time;durP1;ratioP1;P1;durP2;ratioP2;P2;SDS_P1;SDS_P2;PMS_P1;PMS_P2;Temp;Humidity;BMP_temperature;BMP_pressure;BME280_temperature;BME280_humidity;BME280_pressure;Samples;Min_cycle;Max_cycle;Signal;HPM_P1;HPM_P2
2023/12/22 00:01:09;;;;;;;28.40;11.88;;;;;;;3.45;100.00;95774.53;5119723;27;20083;-79
2023/12/22 00:03:34;;;;;;;30.20;11.63;;;;;;;3.53;100.00;95767.84;5126942;27;20037;-78
2023/12/22 00:06:00;;;;;;;42.72;10.95;;;;;;;3.60;100.00;95758.56;5124364;27;20058;-78
2023/12/22 00:08:25;;;;;;;23.02;8.90;;;;;;;3.67;100.00;95738.75;5133535;27;20039;-77
2023/12/22 00:10:51;;;;;;;19.02;8.07;;;;;;;3.85;100.00;95731.41;5114418;27;20482;-78
2023/12/22 00:13:17;;;;;;;13.65;6.50;;;;;;;3.96;100.00;95733.38;5110993;27;20036;-78
2023/12/22 00:15:42;;;;;;;23.13;9.23;;;;;;;4.16;100.00;95715.25;5119567;27;20041;-77
2023/12/22 00:18:08;;;;;;;32.22;13.45;;;;;;;4.14;100.00;95734.81;5136680;27;20041;-78
2023/12/22 00:20:34;;;;;;;29.17;12.65;;;;;;;4.11;100.00;95712.06;5116839;27;20019;-78
2023/12/22 00:23:00;;;;;;;29.30;11.73;;;;;;;4.08;100.00;95724.63;5123736;27;20030;-78
2023/12/22 00:25:25;;;;;;;14.05;7.10;;;;;;;4.11;100.00;95705.91;5136360;27;20073;-77
2023/12/22 00:27:51;;;;;;;15.60;7.13;;;;;;;4.03;100.00;95703.75;5135505;27;20027;-77
2023/12/22 00:30:17;;;;;;;12.85;6.18;;;;;;;3.93;100.00;95713.28;5119165;27;20121;-77
2023/12/22 00:32:43;;;;;;;10.20;4.70;;;;;;;3.92;100.00;95689.56;5136557;27;20680;-78
2023/12/22 00:35:08;;;;;;;10.25;4.22;;;;;;;3.99;100.00;95701.44;5119041;27;20418;-77
2023/12/22 00:37:34;;;;;;;11.35;4.75;;;;;;;3.98;100.00;95728.81;5127562;27;20037;-77
2023/12/22 00:40:00;;;;;;;14.98;5.38;;;;;;;3.89;100.00;95695.06;5113651;27;20019;-77
2023/12/22 00:42:26;;;;;;;9.57;4.63;;;;;;;3.87;100.00;95715.47;5116266;27;20030;-76
2023/12/22 00:44:52;;;;;;;11.98;5.80;;;;;;;3.92;100.00;95706.28;5136520;27;20401;-77
2023/12/22 00:47:17;;;;;;;9.25;4.38;;;;;;;3.99;100.00;95681.13;5118961;27;20500;-77
2023/12/22 00:49:43;;;;;;;8.60;4.70;;;;;;;3.96;100.00;95693.72;5136277;27;20030;-76
2023/12/22 00:52:09;;;;;;;14.50;5.80;;;;;;;3.99;100.00;95697.00;5118098;27;20046;-76
2023/12/22 00:54:34;;;;;;;7.15;4.63;;;;;;;3.96;100.00;95669.91;5118649;27;20023;-77
2023/12/22 00:57:00;;;;;;;7.10;3.65;;;;;;;4.02;100.00;95688.00;5136053;27;20037;-77
2023/12/22 00:59:26;;;;;;;8.10;3.92;;;;;;;4.14;100.00;95693.34;5135893;27;20037;-77
2023/12/22 01:01:52;;;;;;;12.00;4.72;;;;;;;4.21;100.00;95672.63;5136247;27;20110;-77
2023/12/22 01:04:17;;;;;;;9.82;4.90;;;;;;;4.27;100.00;95675.72;5145534;27;20107;-77
2023/12/22 01:06:43;;;;;;;4.43;2.53;;;;;;;4.46;100.00;95653.28;5132359;27;20153;-76
2023/12/22 01:09:09;;;;;;;13.98;6.07;;;;;;;4.64;100.00;95663.47;5131286;27;20418;-77
2023/12/22 01:11:36;;;;;;;11.88;5.80;;;;;;;4.57;100.00;95695.75;5117330;27;20058;-76
2023/12/22 01:14:01;;;;;;;9.23;3.78;;;;;;;4.77;100.00;95674.03;5136071;27;20026;-76
2023/12/22 01:16:29;;;;;;;8.60;3.45;;;;;;;4.86;100.00;95668.94;5135936;27;20056;-76
2023/12/22 01:18:55;;;;;;;7.75;2.80;;;;;;;4.90;100.00;95664.28;5106222;27;20019;-77
2023/12/22 01:21:20;;;;;;;12.70;6.45;;;;;;;4.99;100.00;95679.53;5113439;27;20049;-77
2023/12/22 01:23:46;;;;;;;13.35;6.05;;;;;;;5.01;100.00;95680.28;5118244;27;20030;-76
2023/12/22 01:26:11;;;;;;;10.20;5.43;;;;;;;4.93;100.00;95669.38;5135683;27;20080;-77
2023/12/22 01:28:37;;;;;;;12.18;5.78;;;;;;;4.93;100.00;95680.81;5117367;27;20462;-77
2023/12/22 01:31:03;;;;;;;21.25;9.02;;;;;;;4.94;100.00;95671.06;5134917;27;20025;-76
2023/12/22 01:33:32;;;;;;;22.73;8.30;;;;;;;4.89;100.00;95686.44;5146791;27;20082;-76
2023/12/22 01:35:57;;;;;;;20.52;7.90;;;;;;;4.89;100.00;95679.31;5132113;27;20096;-76
2023/12/22 01:38:23;;;;;;;14.90;6.60;;;;;;;4.90;100.00;95674.88;5130616;27;20027;-77
2023/12/22 01:40:48;;;;;;;12.43;5.70;;;;;;;5.01;100.00;95663.53;5134740;27;20034;-76
2023/12/22 01:43:15;;;;;;;11.00;5.25;;;;;;;5.13;100.00;95676.78;5134038;27;20047;-76
2023/12/22 01:45:43;;;;;;;14.95;5.90;;;;;;;5.13;100.00;95660.88;5135434;27;20029;-76
2023/12/22 01:48:09;;;;;;;16.38;5.55;;;;;;;5.16;100.00;95654.50;5118007;27;20041;-76
2023/12/22 01:50:36;;;;;;;14.35;6.80;;;;;;;5.18;100.00;95653.44;5144961;27;20019;-76
2023/12/22 01:53:02;;;;;;;18.58;7.05;;;;;;;5.21;100.00;95642.63;5115492;27;20529;-77
2023/12/22 01:55:29;;;;;;;15.57;7.05;;;;;;;5.29;100.00;95652.69;5132836;27;20048;-76
2023/12/22 01:57:55;;;;;;;10.88;5.05;;;;;;;5.41;100.00;95651.81;5105711;27;20026;-77
2023/12/22 02:00:21;;;;;;;11.48;5.50;;;;;;;5.54;100.00;95649.13;5108244;27;20023;-76
2023/12/22 02:02:47;;;;;;;14.68;6.68;;;;;;;5.55;100.00;95654.28;5132452;27;20034;-77
2023/12/22 02:05:13;;;;;;;20.73;8.82;;;;;;;5.59;100.00;95661.09;5114504;27;20037;-76
2023/12/22 02:07:41;;;;;;;12.68;6.50;;;;;;;5.62;100.00;95638.78;5117329;27;20049;-77
2023/12/22 02:10:10;;;;;;;14.93;7.15;;;;;;;5.70;100.00;95642.56;5117087;27;20099;-77
2023/12/22 02:12:38;;;;;;;18.35;8.27;;;;;;;5.78;100.00;95645.50;5117424;27;20092;-77
2023/12/22 02:15:05;;;;;;;14.48;6.57;;;;;;;5.91;100.00;95638.38;5132308;27;20027;-77
2023/12/22 02:17:39;;;;;;;17.67;7.60;;;;;;;6.05;100.00;95621.44;5129407;27;20022;-77
2023/12/22 02:20:07;;;;;;;12.85;5.95;;;;;;;6.08;100.00;95626.50;5117132;27;20025;-77
2023/12/22 02:22:32;;;;;;;5.72;3.13;;;;;;;6.44;100.00;95625.50;5110260;27;20504;-76
2023/12/22 02:24:58;;;;;;;6.50;3.55;;;;;;;6.59;100.00;95595.13;5134414;27;20022;-76
2023/12/22 02:27:44;;;;;;;7.38;3.47;;;;;;;6.71;100.00;95595.97;5134276;27;20026;-77
2023/12/22 02:30:33;;;;;;;12.77;5.45;;;;;;;6.79;100.00;95613.03;5115827;27;20031;-77
2023/12/22 02:33:05;;;;;;;4.85;2.95;;;;;;;7.07;100.00;95599.22;5134030;27;20458;-77
2023/12/22 02:35:32;;;;;;;9.38;4.55;;;;;;;7.35;100.00;95616.47;5134432;27;20027;-77
2023/12/22 02:37:59;;;;;;;12.10;4.60;;;;;;;7.44;100.00;95601.63;5134077;27;20027;-77
2023/12/22 02:40:25;;;;;;;9.93;4.95;;;;;;;7.48;100.00;95593.25;5134218;27;20388;-77
2023/12/22 02:42:52;;;;;;;23.80;10.20;;;;;;;7.65;100.00;95607.88;5134139;27;20027;-77
2023/12/22 02:45:18;;;;;;;15.98;6.50;;;;;;;7.69;100.00;95581.84;5134321;27;20052;-77
2023/12/22 02:47:44;;;;;;;18.40;7.53;;;;;;;7.79;100.00;95591.59;5110249;27;20448;-78
2023/12/22 02:50:12;;;;;;;18.90;7.30;;;;;;;7.84;100.00;95600.06;5133302;27;20474;-77
2023/12/22 02:52:38;;;;;;;10.75;5.00;;;;;;;7.87;100.00;95601.63;5116565;27;20026;-77
2023/12/22 02:55:04;;;;;;;10.00;4.13;;;;;;;7.95;100.00;95591.19;5131928;27;20382;-77
2023/12/22 02:57:29;;;;;;;8.35;3.92;;;;;;;7.93;100.00;95583.34;5110660;27;20594;-78
2023/12/22 02:59:56;;;;;;;7.57;3.92;;;;;;;7.98;100.00;95589.13;5133256;27;20030;-77
2023/12/22 03:02:22;;;;;;;7.20;3.60;;;;;;;7.95;100.00;95580.53;5113667;27;20480;-77
2023/12/22 03:04:47;;;;;;;5.97;3.20;;;;;;;7.94;100.00;95570.84;5113276;27;20027;-78
2023/12/22 03:07:13;;;;;;;6.40;3.72;;;;;;;7.93;100.00;95572.69;5132944;27;20042;-77
2023/12/22 03:09:40;;;;;;;5.18;3.08;;;;;;;8.02;100.00;95566.59;5132101;27;20414;-77
2023/12/22 03:12:09;;;;;;;7.13;3.67;;;;;;;8.08;100.00;95563.44;5114516;27;20038;-77
2023/12/22 03:14:35;;;;;;;10.20;4.00;;;;;;;8.06;100.00;95568.00;5133311;27;20019;-77
2023/12/22 03:17:02;;;;;;;6.68;3.47;;;;;;;8.02;100.00;95569.25;5116499;27;20428;-77
2023/12/22 03:19:27;;;;;;;10.10;4.28;;;;;;;8.07;100.00;95555.56;5109387;27;20121;-77
2023/12/22 03:21:53;;;;;;;7.10;3.55;;;;;;;8.08;100.00;95566.09;5114962;27;20148;-77
2023/12/22 03:24:19;;;;;;;8.15;4.15;;;;;;;8.19;99.59;95583.81;5130023;27;20114;-77
2023/12/22 03:26:45;;;;;;;6.28;2.90;;;;;;;8.38;96.76;95569.81;5133801;27;20026;-77
2023/12/22 03:29:11;;;;;;;4.78;2.97;;;;;;;8.48;94.86;95568.91;5133207;27;20061;-77
2023/12/22 03:31:37;;;;;;;6.70;3.72;;;;;;;8.54;96.86;95567.53;5116457;27;20498;-77
2023/12/22 03:34:02;;;;;;;6.47;3.47;;;;;;;8.49;96.39;95569.75;5125154;27;20029;-78
2023/12/22 03:36:28;;;;;;;6.75;3.75;;;;;;;8.52;96.49;95565.00;5115949;27;20047;-77
2023/12/22 03:38:54;;;;;;;11.18;5.05;;;;;;;8.43;97.45;95570.28;5116465;27;20094;-77
2023/12/22 03:41:19;;;;;;;9.63;4.13;;;;;;;8.47;96.87;95577.03;5150452;27;20027;-77
2023/12/22 03:43:45;;;;;;;11.30;4.93;;;;;;;8.49;97.14;95556.44;5109217;27;20502;-77
2023/12/22 03:46:10;;;;;;;9.48;3.80;;;;;;;8.54;98.98;95563.06;5151760;27;20038;-78
2023/12/22 03:48:36;;;;;;;4.28;2.20;;;;;;;8.76;100.00;95551.41;5133381;27;20084;-78
2023/12/22 03:51:02;;;;;;;3.63;2.53;;;;;;;9.08;100.00;95554.75;5114658;27;20027;-77
2023/12/22 03:53:27;;;;;;;4.60;2.30;;;;;;;9.33;100.00;95566.75;5132987;27;20033;-78
2023/12/22 03:55:53;;;;;;;3.08;2.33;;;;;;;9.36;99.31;95573.63;5115911;27;20031;-77
2023/12/22 03:58:18;;;;;;;3.88;2.40;;;;;;;9.43;97.35;95585.47;5115120;27;20462;-79
2023/12/22 04:00:44;;;;;;;4.10;2.60;;;;;;;9.40;97.11;95575.06;5132496;27;20034;-77
2023/12/22 04:03:09;;;;;;;4.00;2.85;;;;;;;9.31;97.75;95578.56;5116178;27;20030;-77
2023/12/22 04:05:35;;;;;;;5.88;3.22;;;;;;;9.23;98.19;95590.72;5114142;27;20053;-77
2023/12/22 04:08:01;;;;;;;4.72;2.50;;;;;;;9.19;100.00;95586.66;5133065;27;20206;-77
2023/12/22 04:10:27;;;;;;;7.30;2.70;;;;;;;9.22;100.00;95602.41;5115442;27;20038;-76
2023/12/22 04:12:52;;;;;;;6.22;3.20;;;;;;;9.23;100.00;95595.22;5132922;27;20072;-77
2023/12/22 04:15:18;;;;;;;5.18;3.08;;;;;;;9.09;100.00;95583.09;5151236;27;20058;-77
2023/12/22 04:17:44;;;;;;;5.70;2.90;;;;;;;9.00;100.00;95575.06;5132645;27;20014;-77
2023/12/22 04:20:10;;;;;;;5.97;2.40;;;;;;;9.14;100.00;95593.34;5132617;27;20105;-78
2023/12/22 04:22:36;;;;;;;5.30;3.00;;;;;;;9.08;100.00;95578.75;5115280;27;20027;-76
2023/12/22 04:25:01;;;;;;;4.53;2.70;;;;;;;9.07;100.00;95586.91;5115795;27;20037;-77
2023/12/22 04:27:27;;;;;;;3.75;2.67;;;;;;;8.95;100.00;95571.97;5116988;27;20489;-77
2023/12/22 04:29:52;;;;;;;5.75;3.25;;;;;;;8.97;100.00;95576.19;5135909;27;20030;-76
2023/12/22 04:32:18;;;;;;;6.28;3.13;;;;;;;8.90;100.00;95580.34;5155023;27;20030;-75
2023/12/22 04:34:43;;;;;;;6.32;2.92;;;;;;;8.80;100.00;95582.13;5155026;27;20378;-75
2023/12/22 04:37:09;;;;;;;2.53;1.67;;;;;;;9.02;100.00;95562.44;5136410;27;20167;-75
2023/12/22 04:39:35;;;;;;;4.35;2.25;;;;;;;9.10;100.00;95568.81;5135696;27;20030;-76
2023/12/22 04:42:00;;;;;;;3.20;2.25;;;;;;;9.00;100.00;95564.41;5112548;27;20026;-75
2023/12/22 04:44:26;;;;;;;3.85;2.50;;;;;;;8.99;100.00;95550.22;5118641;27;20034;-75
2023/12/22 04:46:51;;;;;;;6.20;3.38;;;;;;;8.98;100.00;95572.53;5135287;27;20026;-76
2023/12/22 04:49:18;;;;;;;7.25;3.97;;;;;;;8.96;100.00;95553.16;5119031;27;20023;-76
2023/12/22 04:51:43;;;;;;;4.97;3.10;;;;;;;8.90;100.00;95561.69;5140259;27;20023;-76
2023/12/22 04:54:09;;;;;;;8.23;3.50;;;;;;;9.00;100.00;95565.25;5145981;27;20114;-75
2023/12/22 04:56:35;;;;;;;4.88;2.65;;;;;;;8.89;100.00;95577.84;5136029;27;20018;-77
2023/12/22 04:59:00;;;;;;;4.40;2.47;;;;;;;8.87;100.00;95574.44;5124853;27;20034;-76
2023/12/22 05:01:26;;;;;;;4.20;2.25;;;;;;;8.80;100.00;95581.31;5141185;27;20034;-77
2023/12/22 05:03:53;;;;;;;6.28;2.92;;;;;;;8.78;100.00;95575.22;5131290;27;20027;-77
2023/12/22 05:06:19;;;;;;;6.78;3.15;;;;;;;8.79;100.00;95559.13;5135451;27;20095;-78
2023/12/22 05:08:45;;;;;;;4.68;2.70;;;;;;;8.74;100.00;95556.00;5135317;27;20022;-76
2023/12/22 05:11:10;;;;;;;3.97;2.35;;;;;;;8.82;100.00;95558.84;5115190;27;20023;-76
2023/12/22 05:13:36;;;;;;;4.57;2.75;;;;;;;8.80;100.00;95576.78;5132826;27;20062;-77
2023/12/22 05:16:04;;;;;;;5.55;2.97;;;;;;;8.73;100.00;95572.97;5118376;27;20035;-77
2023/12/22 05:18:29;;;;;;;4.93;2.75;;;;;;;8.80;100.00;95579.44;5110628;27;20114;-77
2023/12/22 05:20:55;;;;;;;4.43;2.63;;;;;;;8.74;100.00;95569.31;5124881;27;20097;-77
2023/12/22 05:23:21;;;;;;;3.50;2.22;;;;;;;8.73;100.00;95567.66;5135402;27;20029;-77
2023/12/22 05:25:46;;;;;;;3.72;2.70;;;;;;;8.55;100.00;95561.25;5144507;27;20080;-77
2023/12/22 05:28:12;;;;;;;4.55;2.25;;;;;;;8.59;100.00;95570.66;5135469;27;20118;-78
2023/12/22 05:30:37;;;;;;;3.08;2.05;;;;;;;8.68;100.00;95560.03;5134289;27;20026;-77
2023/12/22 05:33:03;;;;;;;7.47;3.13;;;;;;;8.78;100.00;95573.41;5153708;27;20527;-78
2023/12/22 05:35:29;;;;;;;3.20;2.17;;;;;;;8.78;100.00;95592.06;5148824;27;20023;-77
2023/12/22 05:37:55;;;;;;;2.75;1.92;;;;;;;8.78;100.00;95581.41;5116724;27;20038;-76
2023/12/22 05:40:20;;;;;;;6.40;3.47;;;;;;;8.84;100.00;95561.38;5115598;27;20057;-75
2023/12/22 05:42:46;;;;;;;4.60;2.35;;;;;;;8.94;100.00;95573.78;5135331;27;20026;-74
2023/12/22 05:45:12;;;;;;;4.00;2.10;;;;;;;9.00;100.00;95583.91;5135093;27;20098;-75
2023/12/22 05:47:37;;;;;;;3.45;2.47;;;;;;;8.92;100.00;95585.56;5153926;27;20025;-75
2023/12/22 05:50:04;;;;;;;6.13;3.30;;;;;;;8.95;100.00;95588.78;5131448;27;20023;-75
2023/12/22 05:52:29;;;;;;;6.15;3.10;;;;;;;9.00;100.00;95607.91;5130634;27;20046;-75
2023/12/22 05:54:55;;;;;;;6.07;2.53;;;;;;;9.06;100.00;95596.72;5132695;27;20031;-75
2023/12/22 05:57:21;;;;;;;16.48;2.40;;;;;;;9.16;100.00;95589.59;5134895;27;20041;-75
2023/12/22 05:59:46;;;;;;;4.97;3.28;;;;;;;9.21;100.00;95598.03;5134688;27;20019;-75
2023/12/22 06:02:13;;;;;;;4.80;3.50;;;;;;;9.22;100.00;95593.56;5134505;27;20027;-74
2023/12/22 06:04:38;;;;;;;17.23;2.80;;;;;;;9.16;100.00;95586.09;5132132;27;20042;-75
2023/12/22 06:07:04;;;;;;;5.82;3.22;;;;;;;9.24;100.00;95564.91;5134647;27;20077;-76
2023/12/22 06:09:30;;;;;;;6.70;3.38;;;;;;;9.16;100.00;95570.94;5135072;27;20400;-75
2023/12/22 06:11:55;;;;;;;6.05;3.38;;;;;;;9.12;100.00;95572.19;5135066;27;20067;-76
2023/12/22 06:14:21;;;;;;;7.93;3.33;;;;;;;9.17;100.00;95587.75;5117429;27;20035;-75
2023/12/22 06:16:47;;;;;;;4.13;2.60;;;;;;;9.35;100.00;95579.97;5152990;27;20014;-76
2023/12/22 06:19:13;;;;;;;3.75;2.55;;;;;;;9.25;100.00;95559.44;5153456;27;20022;-76
2023/12/22 06:21:39;;;;;;;5.65;2.70;;;;;;;9.27;100.00;95568.16;5153675;27;20071;-76
2023/12/22 06:24:05;;;;;;;2.30;1.52;;;;;;;9.27;100.00;95561.97;5117304;27;20018;-76
2023/12/22 06:26:31;;;;;;;5.65;2.70;;;;;;;9.26;100.00;95590.47;5134009;27;20075;-76
2023/12/22 06:28:57;;;;;;;6.10;3.45;;;;;;;9.15;100.00;95582.56;5147446;27;20011;-76
2023/12/22 06:31:23;;;;;;;6.75;2.78;;;;;;;9.14;100.00;95574.69;5132850;27;20026;-74
2023/12/22 06:33:49;;;;;;;5.60;2.85;;;;;;;9.14;100.00;95575.53;5134111;27;20071;-77
2023/12/22 06:36:22;;;;;;;6.75;2.20;;;;;;;9.14;100.00;95572.88;5117250;27;20027;-77
2023/12/22 06:38:48;;;;;;;5.22;2.47;;;;;;;9.22;100.00;95565.06;5108226;27;20566;-75
2023/12/22 06:41:21;;;;;;;2.97;2.10;;;;;;;9.24;100.00;95555.09;5116549;27;20513;-75
2023/12/22 06:43:47;;;;;;;3.80;2.70;;;;;;;9.22;100.00;95561.53;5104052;27;20019;-76
2023/12/22 06:46:16;;;;;;;3.75;2.83;;;;;;;9.13;100.00;95562.34;5116420;27;20034;-76
2023/12/22 06:48:42;;;;;;;6.72;3.88;;;;;;;9.05;100.00;95570.16;5117000;27;20456;-75
2023/12/22 06:51:07;;;;;;;32.13;17.58;;;;;;;9.00;100.00;95578.59;5152115;27;20184;-75
2023/12/22 06:53:33;;;;;;;17.75;8.88;;;;;;;9.06;100.00;95575.38;5152628;27;20033;-74
2023/12/22 06:55:59;;;;;;;10.48;3.92;;;;;;;9.11;100.00;95570.47;5134133;27;20037;-74
2023/12/22 06:58:25;;;;;;;3.83;2.60;;;;;;;9.20;100.00;95556.31;5133784;27;20033;-75
2023/12/22 07:00:51;;;;;;;5.45;2.72;;;;;;;9.20;100.00;95572.34;5134022;27;20088;-75
2023/12/22 07:03:19;;;;;;;9.10;5.35;;;;;;;9.12;100.00;95577.50;5152669;27;20027;-75
2023/12/22 07:05:44;;;;;;;23.95;10.35;;;;;;;9.07;100.00;95592.22;5134000;27;20050;-75
2023/12/22 07:08:10;;;;;;;19.45;8.27;;;;;;;9.04;100.00;95582.69;5115252;27;20053;-75
2023/12/22 07:10:36;;;;;;;5.65;3.13;;;;;;;9.11;100.00;95591.81;5140679;27;20023;-75
2023/12/22 07:13:01;;;;;;;10.73;5.97;;;;;;;9.06;100.00;95596.72;5137395;27;20118;-75
2023/12/22 07:15:28;;;;;;;10.05;5.25;;;;;;;8.95;100.00;95595.97;5123249;27;20179;-74
2023/12/22 07:17:53;;;;;;;5.85;3.55;;;;;;;8.97;100.00;95600.19;5126695;27;20032;-75
2023/12/22 07:20:19;;;;;;;4.18;2.50;;;;;;;9.03;100.00;95615.66;5106855;27;20038;-75
2023/12/22 07:22:45;;;;;;;5.72;3.58;;;;;;;9.06;100.00;95634.03;5133692;27;20083;-75
2023/12/22 07:25:11;;;;;;;20.60;6.10;;;;;;;9.11;100.00;95630.97;5108229;27;20443;-75
2023/12/22 07:27:37;;;;;;;4.00;2.78;;;;;;;9.11;100.00;95622.97;5152436;27;20031;-76
2023/12/22 07:30:03;;;;;;;7.78;3.65;;;;;;;9.14;100.00;95609.34;5102348;27;20035;-75
2023/12/22 07:32:29;;;;;;;20.77;11.13;;;;;;;9.19;100.00;95612.50;5133804;27;20492;-75
2023/12/22 07:34:55;;;;;;;8.75;3.65;;;;;;;9.20;100.00;95607.00;5131687;27;20027;-76
2023/12/22 07:37:21;;;;;;;4.57;2.42;;;;;;;9.21;100.00;95600.69;5133900;27;20395;-75
2023/12/22 07:39:46;;;;;;;9.23;4.95;;;;;;;9.20;100.00;95577.66;5136886;27;20029;-75
2023/12/22 07:42:12;;;;;;;8.55;4.60;;;;;;;9.31;100.00;95595.41;5125997;27;20390;-74
2023/12/22 07:45:03;;;;;;;4.18;2.20;;;;;;;9.38;100.00;95617.06;5115087;27;20061;-80
2023/12/22 07:47:42;;;;;;;3.53;2.30;;;;;;;9.34;100.00;95631.63;5138837;27;20137;-76
2023/12/22 07:50:08;;;;;;;4.32;2.20;;;;;;;9.26;100.00;95627.81;5152166;27;20485;-74
2023/12/22 07:52:38;;;;;;;8.75;2.08;;;;;;;9.27;100.00;95632.16;5126431;28;20027;-75
2023/12/22 07:55:10;;;;;;;3.03;1.85;;;;;;;9.30;100.00;95625.72;5145180;27;20054;-74
2023/12/22 07:57:36;;;;;;;3.47;1.98;;;;;;;9.24;100.00;95627.09;5114988;27;20031;-74
2023/12/22 08:00:03;;;;;;;2.65;1.50;;;;;;;9.32;100.00;95617.59;5132280;27;20030;-74
2023/12/22 08:02:29;;;;;;;3.17;1.80;;;;;;;9.35;100.00;95620.81;5134369;27;20548;-74
2023/12/22 08:04:54;;;;;;;5.22;2.92;;;;;;;9.34;100.00;95632.47;5134909;27;20019;-74
2023/12/22 08:07:20;;;;;;;6.60;3.90;;;;;;;9.41;100.00;95638.13;5137356;27;20042;-74
2023/12/22 08:09:46;;;;;;;4.05;2.58;;;;;;;9.40;100.00;95642.63;5119770;27;20033;-75
2023/12/22 08:12:11;;;;;;;3.47;1.77;;;;;;;9.42;100.00;95656.66;5137177;27;20097;-74
2023/12/22 08:14:37;;;;;;;4.05;2.13;;;;;;;9.40;100.00;95668.44;5155822;27;20387;-74
2023/12/22 08:17:02;;;;;;;6.90;1.90;;;;;;;9.34;100.00;95691.16;5130893;27;20019;-75
2023/12/22 08:19:28;;;;;;;5.38;2.10;;;;;;;9.32;100.00;95706.44;5137431;27;20019;-75
2023/12/22 08:21:56;;;;;;;2.13;1.60;;;;;;;9.23;100.00;95708.09;5130817;27;20019;-74
2023/12/22 08:24:22;;;;;;;3.30;2.38;;;;;;;9.29;100.00;95722.72;5132199;27;20027;-74
2023/12/22 08:26:48;;;;;;;8.00;2.17;;;;;;;9.24;100.00;95728.47;5118771;27;20035;-75
2023/12/22 08:29:13;;;;;;;8.77;3.45;;;;;;;9.36;100.00;95715.88;5116693;27;20049;-73
2023/12/22 08:31:39;;;;;;;13.98;3.40;;;;;;;9.30;100.00;95726.22;5131486;27;20094;-74
2023/12/22 08:34:05;;;;;;;5.43;2.65;;;;;;;9.34;100.00;95738.34;5155488;27;20038;-74
2023/12/22 08:36:31;;;;;;;4.40;2.72;;;;;;;9.33;100.00;95748.16;5155720;27;20026;-74
2023/12/22 08:38:57;;;;;;;4.35;2.42;;;;;;;9.32;100.00;95746.47;5134100;27;20085;-74
2023/12/22 08:41:23;;;;;;;12.77;6.80;;;;;;;9.30;100.00;95744.91;5155509;27;20022;-75
2023/12/22 08:43:49;;;;;;;9.40;4.60;;;;;;;9.32;100.00;95748.31;5131289;27;20023;-75
2023/12/22 08:46:15;;;;;;;44.92;22.75;;;;;;;9.34;100.00;95751.69;5136981;27;20026;-74
2023/12/22 08:48:40;;;;;;;5.63;3.22;;;;;;;9.33;100.00;95752.66;5155296;27;20034;-75
2023/12/22 08:51:06;;;;;;;4.35;2.40;;;;;;;9.22;100.00;95753.59;5155274;27;20030;-74
2023/12/22 08:53:36;;;;;;;4.43;2.13;;;;;;;9.18;100.00;95745.00;5136563;27;20078;-75
2023/12/22 08:56:02;;;;;;;2.47;1.75;;;;;;;9.10;100.00;95725.28;5136940;27;20105;-75
2023/12/22 08:58:28;;;;;;;3.75;1.88;;;;;;;9.05;100.00;95744.34;5155463;27;20026;-75
2023/12/22 09:00:54;;;;;;;3.40;2.10;;;;;;;9.06;100.00;95751.38;5128119;27;20102;-75
2023/12/22 09:03:19;;;;;;;5.85;3.72;;;;;;;9.06;100.00;95763.84;5155082;27;20037;-75
2023/12/22 09:05:46;;;;;;;4.78;2.53;;;;;;;9.03;100.00;95756.97;5130673;27;20089;-74
2023/12/22 09:08:12;;;;;;;6.25;2.97;;;;;;;9.10;100.00;95757.28;5136792;27;20026;-74
2023/12/22 09:10:38;;;;;;;5.93;2.90;;;;;;;9.14;100.00;95764.88;5146804;27;20110;-75
2023/12/22 09:13:04;;;;;;;7.38;3.63;;;;;;;9.10;100.00;95758.16;5129643;27;20019;-73
2023/12/22 09:15:29;;;;;;;4.25;2.88;;;;;;;9.15;100.00;95766.59;5146694;27;20022;-74
2023/12/22 09:17:55;;;;;;;4.68;2.40;;;;;;;9.21;100.00;95767.88;5134504;27;20037;-75
2023/12/22 09:20:22;;;;;;;5.47;3.13;;;;;;;9.32;100.00;95785.66;5135476;27;20478;-75
2023/12/22 09:22:48;;;;;;;5.57;3.22;;;;;;;9.25;100.00;95788.00;5140464;27;20033;-75
2023/12/22 09:25:13;;;;;;;13.32;5.05;;;;;;;9.19;100.00;95789.38;5130546;27;20026;-75
2023/12/22 09:27:40;;;;;;;5.57;3.00;;;;;;;9.16;100.00;95797.63;5133783;27;20030;-74
2023/12/22 09:30:06;;;;;;;4.05;2.42;;;;;;;9.08;100.00;95789.41;5116642;27;20122;-75
2023/12/22 09:32:33;;;;;;;5.13;2.72;;;;;;;9.06;100.00;95783.38;5136979;27;20370;-75
2023/12/22 09:35:00;;;;;;;9.80;3.95;;;;;;;9.13;100.00;95778.38;5135509;27;20161;-75
2023/12/22 09:37:25;;;;;;;6.30;2.83;;;;;;;9.26;100.00;95750.50;5154105;27;20026;-75
2023/12/22 09:39:51;;;;;;;7.82;3.30;;;;;;;9.32;100.00;95745.66;5134821;27;20022;-74
2023/12/22 09:42:17;;;;;;;4.57;2.30;;;;;;;9.42;100.00;95741.19;5118181;27;20055;-74
2023/12/22 09:44:43;;;;;;;6.30;3.83;;;;;;;9.47;100.00;95744.31;5135411;27;20075;-74
2023/12/22 09:47:11;;;;;;;5.88;3.10;;;;;;;9.54;100.00;95724.09;5128163;27;20030;-73
2023/12/22 09:49:38;;;;;;;3.95;2.58;;;;;;;9.64;100.00;95727.69;5144955;27;20027;-74
2023/12/22 09:52:04;;;;;;;7.57;4.07;;;;;;;9.53;100.00;95717.09;5127458;27;20057;-75
2023/12/22 09:54:33;;;;;;;5.95;3.00;;;;;;;9.76;100.00;95719.44;5125785;27;20551;-75
2023/12/22 09:57:00;;;;;;;6.05;3.30;;;;;;;9.92;100.00;95702.06;5133640;27;20034;-75
2023/12/22 09:59:27;;;;;;;6.75;3.00;;;;;;;10.10;100.00;95682.56;5117842;27;20023;-75
2023/12/22 10:01:53;;;;;;;12.95;6.78;;;;;;;10.25;100.00;95680.38;5131802;27;20109;-75
2023/12/22 10:04:20;;;;;;;8.48;4.95;;;;;;;10.49;100.00;95672.78;5117857;27;20029;-75
2023/12/22 10:06:47;;;;;;;6.28;3.75;;;;;;;10.71;100.00;95667.16;5153276;27;20137;-75
2023/12/22 10:09:14;;;;;;;6.00;3.53;;;;;;;10.85;100.00;95652.50;5134901;27;20421;-75
2023/12/22 10:11:41;;;;;;;8.07;4.50;;;;;;;10.97;100.00;95658.53;5135466;27;20481;-75
2023/12/22 10:14:06;;;;;;;4.95;2.78;;;;;;;11.16;100.00;95640.63;5131684;27;20019;-75
2023/12/22 10:16:32;;;;;;;4.88;2.88;;;;;;;11.44;100.00;95641.50;5135090;27;20432;-75
2023/12/22 10:18:59;;;;;;;5.25;3.00;;;;;;;12.10;100.00;95634.13;5136510;27;20019;-75
2023/12/22 10:21:25;;;;;;;5.10;2.95;;;;;;;12.90;97.71;95617.94;5132640;27;20104;-75
2023/12/22 10:23:51;;;;;;;5.30;3.20;;;;;;;13.40;95.52;95607.38;5134550;27;20048;-75
2023/12/22 10:26:17;;;;;;;6.18;3.25;;;;;;;14.99;81.45;95583.84;5153050;27;20018;-75
2023/12/22 10:28:43;;;;;;;13.68;7.43;;;;;;;15.88;72.47;95586.31;5126150;27;20034;-75
2023/12/22 10:31:09;;;;;;;9.27;4.80;;;;;;;16.57;65.61;95567.41;5152797;27;20026;-75
2023/12/22 10:33:36;;;;;;;15.95;9.20;;;;;;;17.35;61.99;95569.72;5134240;27;20018;-75
2023/12/22 10:36:02;;;;;;;8.07;4.47;;;;;;;18.46;56.10;95561.41;5132579;27;20109;-75
2023/12/22 10:38:33;;;;;;;4.43;2.20;;;;;;;18.54;53.22;95553.19;5147777;27;20073;-76
2023/12/22 10:40:58;;;;;;;3.65;2.20;;;;;;;19.17;51.06;95533.31;5134480;27;20024;-75
2023/12/22 10:43:24;;;;;;;1.05;0.90;;;;;;;18.98;49.05;95539.44;5112247;28;20034;-75
2023/12/22 10:45:52;;;;;;;2.60;1.80;;;;;;;19.77;48.27;95517.25;5115121;27;20122;-75
2023/12/22 10:48:18;;;;;;;3.55;2.10;;;;;;;20.13;46.42;95518.84;5113242;27;20126;-75
2023/12/22 10:50:43;;;;;;;7.10;2.78;;;;;;;20.02;46.46;95520.31;5131730;27;20039;-75
2023/12/22 10:53:11;;;;;;;3.47;2.30;;;;;;;19.98;45.13;95513.59;5146346;27;20039;-75
2023/12/22 10:55:37;;;;;;;8.27;3.88;;;;;;;20.36;45.76;95509.38;5113686;27;20033;-74
2023/12/22 10:58:03;;;;;;;9.82;5.57;;;;;;;20.78;44.11;95513.63;5131699;27;20106;-75
2023/12/22 11:00:29;;;;;;;7.28;2.38;;;;;;;19.57;44.96;95508.16;5131541;27;20079;-76
2023/12/22 11:03:01;;;;;;;4.07;2.10;;;;;;;18.51;46.41;95512.97;5126770;27;20030;-76
2023/12/22 11:05:27;;;;;;;;;;;;;;;17.22;50.22;95516.34;5132163;27;20493;-80
2023/12/22 11:07:54;;;;;;;4.63;2.47;;;;;;;16.20;51.89;95510.63;5134195;27;19972;-75
2023/12/22 11:10:21;;;;;;;12.27;6.68;;;;;;;15.22;56.30;95506.75;5133447;27;20042;-74
2023/12/22 11:12:47;;;;;;;8.98;3.85;;;;;;;15.17;58.71;95506.41;5096198;28;20054;-74
2023/12/22 11:15:14;;;;;;;3.55;2.20;;;;;;;14.65;60.35;95522.16;5132135;27;20014;-75
2023/12/22 11:17:40;;;;;;;9.70;2.70;;;;;;;14.70;62.64;95529.75;5133743;27;20128;-75
2023/12/22 11:20:06;;;;;;;5.03;2.40;;;;;;;15.41;59.36;95518.97;5106737;28;20055;-75
2023/12/22 11:22:32;;;;;;;5.60;2.88;;;;;;;16.01;58.30;95519.19;5131963;27;20477;-75
2023/12/22 11:24:59;;;;;;;19.10;10.07;;;;;;;16.80;55.12;95505.25;5152259;27;20030;-75
2023/12/22 11:27:26;;;;;;;8.52;3.10;;;;;;;17.83;51.70;95495.34;5116167;27;20113;-75